createdAt,value
2022-09-26T10:34:35.317Z,42.70
2022-09-26T10:37:29.433Z,44.20
2022-09-26T10:40:45.539Z,43.30
2022-09-26T10:43:23.634Z,42.40
2022-09-26T10:46:03.829Z,43.00
2022-09-26T10:49:02.205Z,42.30
2022-09-26T10:52:23.842Z,42.30
2022-09-26T10:55:04.532Z,41.60
2022-09-26T10:57:54.949Z,38.90
2022-09-26T11:00:41.513Z,39.70
2022-09-26T11:03:34.739Z,41.60
2022-09-26T11:06:45.344Z,44.00
2022-09-26T11:09:23.475Z,42.50
2022-09-26T11:12:30.998Z,41.90
2022-09-26T11:15:14.998Z,38.90
2022-09-26T11:17:48.493Z,39.00
2022-09-26T11:20:45.899Z,40.40
2022-09-26T11:23:36.685Z,40.50
2022-09-26T11:26:18.936Z,42.80
2022-09-26T11:29:06.300Z,43.60
2022-09-26T11:31:44.298Z,43.60
2022-09-26T11:34:31.481Z,41.30
2022-09-26T11:37:35.226Z,40.40
2022-09-26T11:41:09.588Z,39.40
2022-09-26T11:44:21.775Z,40.70
2022-09-26T11:47:37.127Z,42.60
2022-09-26T11:50:21.420Z,42.50
2022-09-26T11:53:40.739Z,42.70
2022-09-26T11:56:35.575Z,39.50
2022-09-26T11:59:31.717Z,38.60
2022-09-26T12:02:42.509Z,37.50
2022-09-26T12:05:54.905Z,37.60
2022-09-26T12:08:49.557Z,38.30
2022-09-26T12:11:34.284Z,40.00
2022-09-26T12:14:35.325Z,37.60
2022-09-26T12:17:20.414Z,36.20
2022-09-26T12:20:15.007Z,37.20
2022-09-26T12:23:22.684Z,37.00
2022-09-26T12:26:11.270Z,35.60
2022-09-26T12:29:10.418Z,39.00
2022-09-26T12:32:09.775Z,40.80
2022-09-26T12:35:21.775Z,42.40
2022-09-26T12:38:20.674Z,45.80
2022-09-26T12:41:05.085Z,47.50
2022-09-26T12:44:28.706Z,48.40
2022-09-26T12:47:37.217Z,50.00
2022-09-26T12:50:52.475Z,50.60
2022-09-26T12:53:44.573Z,51.00
2022-09-26T12:56:45.624Z,51.40
2022-09-26T13:00:09.519Z,51.10
2022-09-26T13:03:33.302Z,51.50
2022-09-26T13:07:20.275Z,50.10
2022-09-26T13:10:06.608Z,48.80
2022-09-26T13:13:24.895Z,48.10
2022-09-26T13:16:34.430Z,48.50
2022-09-26T13:19:33.279Z,49.70
2022-09-26T13:22:27.654Z,50.10
2022-09-26T13:25:11.613Z,51.40
2022-09-26T13:27:47.204Z,52.80
2022-09-26T13:30:24.432Z,52.80
2022-09-26T13:33:41.819Z,53.50
2022-09-26T13:36:10.511Z,53.70
2022-09-26T13:38:53.107Z,53.80
2022-09-26T13:42:18.075Z,54.10
2022-09-26T13:45:16.942Z,54.50
2022-09-26T13:48:13.958Z,54.90
2022-09-26T13:50:56.200Z,55.50
2022-09-26T13:53:35.036Z,55.90
2022-09-26T13:56:41.695Z,55.10
2022-09-26T13:59:11.962Z,55.10
2022-09-26T14:02:20.016Z,55.00
2022-09-26T14:04:50.322Z,55.40
2022-09-26T14:07:40.894Z,56.30
2022-09-26T14:10:13.565Z,55.70
2022-09-26T14:13:28.523Z,56.20
2022-09-26T14:16:00.419Z,55.90
2022-09-26T14:18:56.341Z,56.30
2022-09-26T14:21:57.992Z,57.00
2022-09-26T14:24:30.926Z,57.70
2022-09-26T14:27:11.943Z,57.70
2022-09-26T14:29:39.368Z,58.30
2022-09-26T14:32:12.490Z,58.20
2022-09-26T14:35:27.122Z,58.50
2022-09-26T14:38:09.820Z,58.60
2022-09-26T14:40:38.214Z,58.40
2022-09-26T14:43:19.079Z,57.60
2022-09-26T14:46:06.418Z,58.40
2022-09-26T14:48:42.139Z,58.60
2022-09-26T14:51:12.792Z,58.90
2022-09-26T14:53:49.244Z,58.70
2022-09-26T14:56:26.347Z,59.00
2022-09-26T14:59:15.491Z,59.70
2022-09-26T15:01:46.791Z,59.90
2022-09-26T15:04:25.675Z,60.60
2022-09-26T15:07:00.511Z,61.30
2022-09-26T15:10:14.381Z,61.90
2022-09-26T15:13:09.235Z,61.90
2022-09-26T15:16:11.187Z,62.20
2022-09-26T15:18:48.928Z,62.60
2022-09-26T15:21:38.000Z,63.00
2022-09-26T15:24:34.315Z,62.70
2022-09-26T15:27:15.308Z,63.00
2022-09-26T15:29:58.230Z,62.80
2022-09-26T15:32:29.596Z,62.20
2022-09-26T15:34:57.779Z,62.60
2022-09-26T15:37:32.954Z,62.60
2022-09-26T15:40:23.812Z,62.90
2022-09-26T15:43:12.395Z,63.20
2022-09-26T15:46:02.550Z,63.70
2022-09-26T15:48:33.705Z,63.80
2022-09-26T15:51:25.869Z,63.90
2022-09-26T15:54:03.257Z,64.00
2022-09-26T15:56:44.720Z,64.20
2022-09-26T15:59:19.393Z,64.50
2022-09-26T16:01:48.943Z,64.90
2022-09-26T16:04:29.933Z,65.20
2022-09-26T16:07:03.534Z,65.20
2022-09-26T16:09:33.803Z,65.60
2022-09-26T16:12:19.234Z,66.40
2022-09-26T16:15:00.098Z,66.50
2022-09-26T16:17:56.310Z,67.00
2022-09-26T16:20:27.532Z,67.30
2022-09-26T16:23:05.117Z,67.60
2022-09-26T16:25:53.621Z,68.50
2022-09-26T16:28:44.843Z,68.10
2022-09-26T16:31:37.148Z,67.70
2022-09-26T16:34:26.151Z,68.50
2022-09-26T16:36:54.310Z,68.80
2022-09-26T16:39:26.954Z,69.40
2022-09-26T16:42:03.089Z,69.30
2022-09-26T16:44:51.160Z,69.80
2022-09-26T16:47:45.632Z,69.90
2022-09-26T16:50:33.600Z,70.00
2022-09-26T16:53:06.987Z,70.00
2022-09-26T16:55:37.638Z,70.30
2022-09-26T16:58:06.293Z,70.10
2022-09-26T17:00:53.938Z,70.50
2022-09-26T17:03:28.398Z,70.20
2022-09-26T17:05:58.068Z,70.30
2022-09-26T17:08:27.241Z,70.30
2022-09-26T17:10:57.542Z,70.40
2022-09-26T17:13:28.271Z,70.70
2022-09-26T17:15:57.568Z,70.60
2022-09-26T17:18:33.371Z,70.60
2022-09-26T17:21:01.846Z,70.70
2022-09-26T17:23:41.588Z,70.70
2022-09-26T17:26:20.184Z,70.80
2022-09-26T17:28:48.179Z,70.80
2022-09-26T17:31:21.487Z,70.60
2022-09-26T17:33:54.069Z,70.60
2022-09-26T17:36:27.431Z,70.50
2022-09-26T17:38:57.898Z,70.30
2022-09-26T17:41:28.041Z,69.80
2022-09-26T17:44:00.617Z,69.70
2022-09-26T17:46:28.449Z,70.00
2022-09-26T17:48:56.514Z,70.00
2022-09-26T17:51:24.497Z,69.60
2022-09-26T17:53:52.719Z,69.70
2022-09-26T17:56:21.079Z,69.60
2022-09-26T17:58:52.133Z,69.60
2022-09-26T18:01:27.334Z,69.60
2022-09-26T18:04:01.435Z,69.60
2022-09-26T18:06:33.246Z,69.80
2022-09-26T18:09:07.728Z,69.90
2022-09-26T18:11:38.459Z,69.80
2022-09-26T18:14:08.261Z,70.10
2022-09-26T18:16:35.826Z,70.10
2022-09-26T18:19:07.529Z,70.30
2022-09-26T18:21:35.741Z,70.60
2022-09-26T18:24:07.150Z,70.70
2022-09-26T18:26:42.359Z,70.70
2022-09-26T18:29:18.009Z,71.10
2022-09-26T18:31:46.694Z,71.40
2022-09-26T18:34:19.032Z,71.30
2022-09-26T18:36:50.411Z,71.50
2022-09-26T18:39:17.904Z,71.30
2022-09-26T18:41:46.132Z,71.30
2022-09-26T18:44:17.746Z,71.40
2022-09-26T18:46:47.328Z,71.50
2022-09-26T18:49:15.790Z,71.40
2022-09-26T18:51:43.864Z,71.30
2022-09-26T18:54:14.989Z,71.40
2022-09-26T18:57:01.906Z,71.30
2022-09-26T18:59:32.324Z,71.10
2022-09-26T19:02:02.111Z,71.30
2022-09-26T19:04:33.594Z,71.10
2022-09-26T19:07:05.868Z,71.10
2022-09-26T19:09:35.264Z,71.30
2022-09-26T19:12:04.046Z,71.10
2022-09-26T19:14:32.415Z,71.30
2022-09-26T19:17:00.522Z,71.30
2022-09-26T19:19:32.649Z,71.50
2022-09-26T19:22:10.751Z,71.30
2022-09-26T19:24:41.375Z,71.40
2022-09-26T19:27:23.925Z,71.50
2022-09-26T19:30:21.419Z,71.60
2022-09-26T19:32:54.133Z,71.20
2022-09-26T19:35:31.096Z,71.40
2022-09-26T19:38:00.486Z,70.90
2022-09-26T19:40:29.213Z,70.80
2022-09-26T19:42:57.490Z,70.80
2022-09-26T19:45:26.304Z,70.70
2022-09-26T19:47:56.007Z,70.80
2022-09-26T19:50:27.234Z,70.30
2022-09-26T19:52:58.672Z,70.30
2022-09-26T19:55:29.663Z,70.30
2022-09-26T19:58:07.515Z,70.20
2022-09-26T20:00:41.621Z,70.30
2022-09-26T20:03:40.118Z,70.60
2022-09-26T20:06:23.521Z,71.00
2022-09-26T20:08:57.657Z,71.10
2022-09-26T20:11:28.307Z,71.30
2022-09-26T20:14:14.831Z,71.80
2022-09-26T20:16:43.363Z,71.80
2022-09-26T20:19:21.464Z,72.00
2022-09-26T20:21:48.879Z,72.10
2022-09-26T20:24:19.129Z,72.40
2022-09-26T20:26:48.174Z,72.40
2022-09-26T20:29:16.792Z,72.50
2022-09-26T20:31:44.665Z,73.00
2022-09-26T20:34:12.323Z,73.20
2022-09-26T20:36:49.099Z,73.20
2022-09-26T20:39:24.088Z,73.50
2022-09-26T20:41:52.725Z,73.70
2022-09-26T20:44:33.698Z,73.60
2022-09-26T20:47:04.847Z,74.00
2022-09-26T20:49:41.689Z,74.20
2022-09-26T20:52:25.650Z,74.40
2022-09-26T20:54:54.774Z,75.00
2022-09-26T20:57:24.024Z,75.20
2022-09-26T20:59:52.274Z,75.30
2022-09-26T21:02:32.546Z,75.80
2022-09-26T21:05:03.533Z,75.80
2022-09-26T21:07:32.543Z,75.90
2022-09-26T21:10:00.258Z,76.00
2022-09-26T21:12:30.434Z,76.40
2022-09-26T21:14:57.818Z,76.30
2022-09-26T21:17:30.622Z,76.50
2022-09-26T21:19:58.124Z,76.60
2022-09-26T21:22:44.600Z,76.20
2022-09-26T21:25:21.821Z,76.10
2022-09-26T21:27:56.220Z,76.20
2022-09-26T21:30:23.795Z,76.10
2022-09-26T21:32:56.462Z,76.30
2022-09-26T21:35:29.370Z,76.20
2022-09-26T21:37:59.183Z,76.20
2022-09-26T21:40:30.020Z,76.40
2022-09-26T21:43:05.681Z,76.40
2022-09-26T21:45:34.081Z,76.30
2022-09-26T21:48:01.873Z,76.20
2022-09-26T21:50:33.499Z,76.20
2022-09-26T21:53:08.628Z,76.20
2022-09-26T21:55:42.942Z,76.30
2022-09-26T21:58:17.009Z,76.30
2022-09-26T22:00:44.625Z,76.00
2022-09-26T22:03:12.241Z,75.90
2022-09-26T22:05:40.096Z,76.00
2022-09-26T22:08:07.504Z,76.20
2022-09-26T22:10:37.105Z,76.10
2022-09-26T22:13:05.242Z,76.00
2022-09-26T22:15:32.607Z,76.40
2022-09-26T22:18:00.027Z,76.60
2022-09-26T22:20:27.480Z,76.20
2022-09-26T22:22:55.755Z,76.10
2022-09-26T22:25:23.153Z,76.30
2022-09-26T22:27:52.211Z,76.20
2022-09-26T22:30:19.715Z,76.40
2022-09-26T22:32:47.235Z,76.40
2022-09-26T22:35:14.539Z,76.20
2022-09-26T22:37:41.868Z,76.30
2022-09-26T22:40:09.749Z,76.30
2022-09-26T22:42:37.537Z,76.20
2022-09-26T22:45:05.437Z,76.30
2022-09-26T22:47:32.784Z,76.80
2022-09-26T22:50:00.212Z,77.00
2022-09-26T22:52:27.746Z,77.10
2022-09-26T22:54:55.511Z,77.80
2022-09-26T22:57:23.395Z,78.20
2022-09-26T22:59:50.804Z,78.50
2022-09-26T23:02:18.063Z,78.60
2022-09-26T23:04:48.427Z,78.90
2022-09-26T23:07:19.874Z,79.30
2022-09-26T23:09:47.455Z,79.20
2022-09-26T23:12:15.009Z,79.50
2022-09-26T23:14:42.350Z,79.60
2022-09-26T23:17:10.180Z,79.90
2022-09-26T23:19:38.276Z,79.80
2022-09-26T23:22:06.011Z,80.30
2022-09-26T23:24:33.498Z,80.80
2022-09-26T23:27:00.963Z,81.20
2022-09-26T23:29:28.434Z,81.40
2022-09-26T23:31:55.845Z,82.00
2022-09-26T23:34:23.196Z,81.80
2022-09-26T23:36:50.753Z,81.90
2022-09-26T23:39:18.858Z,82.10
2022-09-26T23:41:46.205Z,82.40
2022-09-26T23:44:13.913Z,82.50
2022-09-26T23:46:41.485Z,82.60
2022-09-26T23:49:09.091Z,82.90
2022-09-26T23:51:36.783Z,82.80
2022-09-26T23:54:04.362Z,82.90
2022-09-26T23:56:31.653Z,83.00
2022-09-26T23:58:59.061Z,83.30
